createdAt,value
2022-10-03T00:02:00.356Z,17.54
2022-10-03T00:06:49.007Z,17.61
2022-10-03T00:11:10.985Z,17.75
2022-10-03T00:15:35.539Z,17.65
2022-10-03T00:19:47.727Z,17.70
2022-10-03T00:24:19.773Z,17.69
2022-10-03T00:28:39.777Z,17.60
2022-10-03T00:32:58.103Z,17.39
2022-10-03T00:37:21.767Z,17.27
2022-10-03T00:42:35.696Z,17.51
2022-10-03T00:46:59.546Z,17.53
2022-10-03T00:51:22.174Z,17.72
2022-10-03T00:55:54.005Z,17.67
2022-10-03T01:00:34.787Z,17.63
2022-10-03T01:05:07.696Z,17.56
2022-10-03T01:09:27.408Z,17.44
2022-10-03T01:14:01.419Z,17.42
2022-10-03T01:18:16.149Z,17.59
2022-10-03T01:22:24.805Z,17.47
2022-10-03T01:26:46.231Z,17.34
2022-10-03T01:30:57.564Z,17.36
2022-10-03T01:36:07.278Z,17.44
2022-10-03T01:40:26.339Z,17.29
2022-10-03T01:44:55.516Z,17.19
2022-10-03T01:49:30.161Z,17.20
2022-10-03T01:53:47.779Z,16.94
2022-10-03T01:58:18.443Z,16.88
2022-10-03T02:02:34.219Z,16.92
2022-10-03T02:07:07.968Z,16.90
2022-10-03T02:11:09.103Z,16.81
2022-10-03T02:15:06.001Z,16.82
2022-10-03T02:19:22.786Z,16.76
2022-10-03T02:23:41.943Z,16.90
2022-10-03T02:28:23.567Z,17.32
2022-10-03T02:32:52.073Z,17.52
2022-10-03T02:37:23.757Z,17.58
2022-10-03T02:41:52.396Z,17.78
2022-10-03T02:46:42.670Z,17.79
2022-10-03T02:51:07.076Z,17.98
2022-10-03T02:55:47.337Z,17.90
2022-10-03T03:00:07.498Z,18.00
2022-10-03T03:04:56.700Z,18.14
2022-10-03T03:09:52.993Z,17.92
2022-10-03T03:14:09.556Z,18.10
2022-10-03T03:18:39.620Z,18.23
2022-10-03T03:22:50.860Z,18.34
2022-10-03T03:27:39.672Z,18.21
2022-10-03T03:32:03.047Z,18.08
2022-10-03T03:36:15.154Z,17.91
2022-10-03T03:41:03.113Z,17.69
2022-10-03T03:45:35.305Z,17.96
2022-10-03T03:50:20.260Z,17.95
2022-10-03T03:55:06.738Z,17.92
2022-10-03T03:59:44.513Z,17.91
2022-10-03T04:04:00.831Z,18.10
2022-10-03T04:08:34.601Z,17.98
2022-10-03T04:12:49.673Z,18.03
2022-10-03T04:17:46.454Z,17.78
2022-10-03T04:21:50.657Z,18.30
2022-10-03T04:26:18.910Z,18.30
2022-10-03T04:30:43.443Z,18.17
2022-10-03T04:34:55.130Z,18.19
2022-10-03T04:39:32.512Z,17.89
2022-10-03T04:43:53.835Z,18.15
2022-10-03T04:48:01.299Z,18.01
2022-10-03T04:52:13.367Z,17.83
2022-10-03T04:56:40.520Z,17.80
2022-10-03T05:01:24.800Z,17.68
2022-10-03T05:05:47.614Z,17.93
2022-10-03T05:09:56.930Z,17.90
2022-10-03T05:14:20.377Z,18.09
2022-10-03T05:18:27.776Z,17.86
2022-10-03T05:22:56.279Z,18.00
2022-10-03T05:27:40.969Z,17.91
2022-10-03T05:32:14.934Z,18.07
2022-10-03T05:36:41.653Z,18.20
2022-10-03T05:40:51.084Z,18.23
2022-10-03T05:45:30.502Z,18.00
2022-10-03T05:50:00.441Z,18.15
2022-10-03T05:54:47.781Z,18.40
2022-10-03T05:59:19.035Z,18.41
2022-10-03T06:03:42.841Z,18.44
2022-10-03T06:08:41.932Z,18.39
2022-10-03T06:13:11.410Z,18.37
2022-10-03T06:17:56.579Z,18.69
2022-10-03T06:22:27.744Z,18.69
2022-10-03T06:26:46.240Z,18.80
2022-10-03T06:31:12.466Z,18.72
2022-10-03T06:35:46.132Z,18.87
2022-10-03T06:40:47.598Z,18.93
2022-10-03T06:45:22.393Z,19.16
2022-10-03T06:49:50.825Z,19.13
2022-10-03T06:54:09.564Z,19.18
2022-10-03T06:58:53.490Z,18.91
2022-10-03T07:02:56.602Z,19.15
2022-10-03T07:07:19.626Z,18.86
2022-10-03T07:12:13.471Z,18.70
2022-10-03T07:16:48.781Z,18.58
2022-10-03T07:21:44.364Z,18.65
2022-10-03T07:26:10.975Z,18.67
2022-10-03T07:30:21.922Z,18.75
2022-10-03T07:35:15.429Z,18.61
2022-10-03T07:39:35.871Z,18.72
2022-10-03T07:43:56.148Z,19.04
2022-10-03T07:48:35.858Z,19.14
2022-10-03T07:52:57.445Z,19.21
2022-10-03T07:57:32.882Z,19.45
2022-10-03T08:02:23.251Z,19.57
2022-10-03T08:06:38.841Z,19.87
2022-10-03T08:11:14.858Z,19.56
2022-10-03T08:15:28.058Z,19.62
2022-10-03T08:19:42.997Z,20.23
2022-10-03T08:24:05.287Z,20.14
2022-10-03T08:28:44.342Z,20.38
2022-10-03T08:33:05.116Z,20.87
2022-10-03T08:37:29.165Z,21.12
2022-10-03T08:42:08.003Z,20.84
2022-10-03T08:46:37.655Z,21.17
2022-10-03T08:51:12.702Z,21.06
2022-10-03T08:55:45.663Z,20.75
2022-10-03T09:00:12.769Z,21.54
2022-10-03T09:04:49.886Z,21.47
2022-10-03T09:09:14.936Z,21.18
2022-10-03T09:13:50.871Z,21.15
2022-10-03T09:18:27.166Z,21.25
2022-10-03T09:22:53.831Z,21.99
2022-10-03T09:27:22.620Z,23.24
2022-10-03T09:31:38.212Z,23.98
2022-10-03T09:36:13.132Z,23.50
2022-10-03T09:41:09.894Z,22.96
2022-10-03T09:45:34.810Z,22.28
2022-10-03T09:50:19.468Z,22.06
2022-10-03T09:54:57.026Z,22.11
2022-10-03T09:59:22.673Z,22.17
2022-10-03T10:03:51.009Z,21.31
2022-10-03T10:07:57.163Z,21.46
2022-10-03T10:12:15.243Z,21.08
2022-10-03T10:16:54.185Z,21.66
2022-10-03T10:21:34.142Z,22.21
2022-10-03T10:26:34.619Z,22.31
2022-10-03T10:31:05.525Z,22.77
2022-10-03T10:35:44.614Z,23.27
2022-10-03T10:40:15.106Z,23.35
2022-10-03T10:45:01.634Z,22.81
2022-10-03T10:49:45.940Z,22.63
2022-10-03T10:54:24.515Z,22.33
2022-10-03T10:58:58.404Z,21.75
2022-10-03T11:03:54.420Z,20.92
2022-10-03T11:08:10.040Z,22.03
2022-10-03T11:12:58.845Z,23.10
2022-10-03T11:17:39.690Z,23.48
2022-10-03T11:22:26.614Z,24.20
2022-10-03T11:27:16.633Z,24.69
2022-10-03T11:32:09.721Z,24.01
2022-10-03T11:36:49.966Z,23.00
2022-10-03T11:41:16.397Z,22.50
2022-10-03T11:45:33.365Z,23.46
2022-10-03T11:50:25.793Z,23.34
2022-10-03T11:54:32.920Z,23.85
2022-10-03T11:58:39.082Z,25.07
2022-10-03T12:03:30.311Z,25.62
2022-10-03T12:07:58.877Z,26.05
2022-10-03T12:12:11.659Z,26.64
2022-10-03T12:16:27.908Z,28.05
2022-10-03T12:20:52.900Z,28.40
2022-10-03T12:24:56.227Z,28.32
2022-10-03T12:28:58.112Z,27.08
2022-10-03T12:33:10.851Z,26.63
2022-10-03T12:37:26.481Z,26.67
2022-10-03T12:42:05.511Z,25.67
2022-10-03T12:46:15.870Z,24.22
2022-10-03T12:50:28.074Z,23.55
2022-10-03T12:54:49.573Z,23.24
2022-10-03T12:59:23.851Z,23.03
2022-10-03T13:03:26.114Z,22.85
2022-10-03T13:07:38.601Z,24.59
2022-10-03T13:12:11.598Z,25.53
2022-10-03T13:16:43.756Z,26.24
2022-10-03T13:20:50.289Z,26.21
2022-10-03T13:25:21.919Z,27.21
2022-10-03T13:29:34.820Z,27.46
2022-10-03T13:33:51.324Z,27.29
2022-10-03T13:38:31.861Z,26.30
2022-10-03T13:42:53.878Z,26.78
2022-10-03T13:47:28.201Z,26.82
2022-10-03T13:51:53.932Z,26.65
2022-10-03T13:55:58.588Z,26.57
2022-10-03T14:00:16.390Z,27.62
2022-10-03T14:04:53.418Z,27.38
2022-10-03T14:09:05.370Z,26.43
2022-10-03T14:13:32.454Z,25.84
2022-10-03T14:17:54.511Z,24.21
2022-10-03T14:22:28.373Z,23.20
2022-10-03T14:26:36.598Z,23.70
2022-10-03T14:31:05.064Z,23.92
2022-10-03T14:35:46.180Z,24.12
2022-10-03T14:40:20.664Z,23.87
2022-10-03T14:44:29.903Z,23.34
2022-10-03T14:48:40.373Z,22.89
2022-10-03T14:53:02.109Z,22.23
2022-10-03T14:57:00.157Z,21.95
2022-10-03T15:01:12.567Z,22.34
2022-10-03T15:05:38.518Z,22.57
2022-10-03T15:09:50.099Z,23.46
2022-10-03T15:13:56.914Z,24.09
2022-10-03T15:18:00.609Z,24.79
2022-10-03T15:22:27.277Z,24.52
2022-10-03T15:26:31.009Z,24.21
2022-10-03T15:30:35.456Z,23.84
2022-10-03T15:34:40.292Z,23.50
2022-10-03T15:38:45.001Z,23.59
2022-10-03T15:43:01.449Z,23.48
2022-10-03T15:47:14.096Z,23.23
2022-10-03T15:51:19.771Z,24.17
2022-10-03T15:55:46.726Z,24.30
2022-10-03T15:59:47.170Z,23.08
2022-10-03T16:03:52.482Z,22.63
2022-10-03T16:08:06.862Z,22.38
2022-10-03T16:12:22.538Z,22.14
2022-10-03T16:16:35.848Z,21.91
2022-10-03T16:20:45.764Z,21.80
2022-10-03T16:25:28.043Z,21.42
2022-10-03T16:29:33.411Z,21.06
2022-10-03T16:34:16.594Z,20.65
2022-10-03T16:38:46.438Z,20.65
2022-10-03T16:42:50.287Z,20.54
2022-10-03T16:46:49.398Z,20.34
2022-10-03T16:50:53.887Z,20.06
2022-10-03T16:55:02.916Z,19.98
2022-10-03T16:59:13.215Z,19.88
2022-10-03T17:03:30.514Z,19.49
2022-10-03T17:07:39.301Z,19.43
2022-10-03T17:11:41.643Z,19.08
2022-10-03T17:16:00.020Z,19.09
2022-10-03T17:20:07.855Z,18.97
2022-10-03T17:24:20.928Z,18.89
2022-10-03T17:28:51.130Z,18.76
2022-10-03T17:33:08.892Z,18.72
2022-10-03T17:37:26.414Z,18.64
2022-10-03T17:42:04.447Z,18.53
2022-10-03T17:46:33.616Z,18.56
2022-10-03T17:50:40.071Z,18.49
2022-10-03T17:54:39.881Z,18.44
2022-10-03T17:58:45.596Z,18.67
2022-10-03T18:03:13.795Z,18.74
2022-10-03T18:07:22.733Z,18.76
2022-10-03T18:11:29.944Z,18.97
2022-10-03T18:16:11.396Z,18.83
2022-10-03T18:20:35.660Z,18.72
2022-10-03T18:25:36.283Z,18.72
2022-10-03T18:29:51.094Z,18.45
2022-10-03T18:34:09.214Z,18.61
2022-10-03T18:38:25.024Z,18.60
2022-10-03T18:42:30.448Z,18.57
2022-10-03T18:46:42.766Z,18.26
2022-10-03T18:50:59.294Z,18.26
2022-10-03T18:55:29.696Z,18.28
2022-10-03T18:59:47.844Z,18.14
2022-10-03T19:04:05.211Z,18.18
2022-10-03T19:08:38.925Z,18.18
2022-10-03T19:12:43.859Z,18.03
2022-10-03T19:17:05.435Z,17.76
2022-10-03T19:21:21.305Z,17.41
2022-10-03T19:25:25.342Z,17.46
2022-10-03T19:29:29.854Z,17.35
2022-10-03T19:33:32.017Z,17.40
2022-10-03T19:37:45.528Z,17.36
2022-10-03T19:42:19.715Z,17.41
2022-10-03T19:46:22.978Z,17.21
2022-10-03T19:50:36.124Z,17.13
2022-10-03T19:54:58.573Z,17.09
2022-10-03T19:59:15.593Z,17.16
2022-10-03T20:03:16.849Z,17.14
2022-10-03T20:07:25.666Z,16.99
2022-10-03T20:11:44.147Z,16.72
2022-10-03T20:15:47.230Z,16.65
2022-10-03T20:19:57.275Z,16.70
2022-10-03T20:23:56.894Z,16.66
2022-10-03T20:27:58.152Z,16.58
2022-10-03T20:32:04.716Z,16.45
2022-10-03T20:36:14.139Z,16.31
2022-10-03T20:40:28.388Z,16.04
2022-10-03T20:44:49.944Z,15.79
2022-10-03T20:49:15.788Z,15.77
2022-10-03T20:53:20.781Z,15.99
2022-10-03T20:57:52.364Z,15.75
2022-10-03T21:02:06.345Z,15.87
2022-10-03T21:06:16.644Z,15.65
2022-10-03T21:10:55.533Z,15.43
2022-10-03T21:15:04.563Z,15.38
2022-10-03T21:19:06.005Z,15.31
2022-10-03T21:23:14.490Z,15.16
2022-10-03T21:27:18.166Z,15.31
2022-10-03T21:31:26.246Z,15.35
2022-10-03T21:35:35.464Z,15.45
2022-10-03T21:40:18.001Z,15.43
2022-10-03T21:44:57.746Z,15.05
2022-10-03T21:49:13.712Z,14.81
2022-10-03T21:53:29.701Z,14.64
2022-10-03T21:58:23.731Z,14.44
2022-10-03T22:03:03.609Z,14.49
2022-10-03T22:07:15.031Z,14.35
2022-10-03T22:11:44.934Z,14.26
2022-10-03T22:16:09.910Z,14.15
2022-10-03T22:20:15.799Z,14.27
2022-10-03T22:24:29.476Z,14.17
2022-10-03T22:29:01.762Z,14.26
2022-10-03T22:33:18.888Z,14.18
2022-10-03T22:37:16.606Z,14.13
2022-10-03T22:41:21.868Z,14.03
2022-10-03T22:45:20.174Z,13.96
2022-10-03T22:49:26.871Z,14.15
2022-10-03T22:53:31.297Z,14.02
2022-10-03T22:57:31.757Z,14.45
2022-10-03T23:01:32.234Z,14.25
2022-10-03T23:06:09.766Z,14.26
2022-10-03T23:10:26.439Z,14.30
2022-10-03T23:14:32.336Z,14.24
2022-10-03T23:18:59.134Z,14.14
2022-10-03T23:23:02.324Z,13.76
2022-10-03T23:27:21.798Z,13.86
2022-10-03T23:32:09.319Z,13.80
2022-10-03T23:36:24.616Z,13.33
2022-10-03T23:40:40.047Z,13.38
2022-10-03T23:45:00.898Z,13.28
2022-10-03T23:49:02.009Z,13.26
2022-10-03T23:53:00.911Z,13.33
2022-10-03T23:57:07.957Z,13.08
